Time;durP1;ratioP1;P1;durP2;ratioP2;P2;SDS_P1;SDS_P2;PMS_P1;PMS_P2;Temp;Humidity;BMP_temperature;BMP_pressure;BME280_temperature;BME280_humidity;BME280_pressure;Samples;Min_cycle;Max_cycle;Signal;HPM_P1;HPM_P2
2023/07/21 00:00:21;;;;;;;0.70;0.70;;;;;;;17.24;55.79;101011.69;4962152;28;97099;-45
2023/07/21 00:02:47;;;;;;;1.37;0.80;;;;;;;17.28;55.55;101005.84;4959857;28;97464;-45
2023/07/21 00:05:16;;;;;;;0.67;0.67;;;;;;;17.27;55.65;101012.69;4959695;28;97745;-44
2023/07/21 00:07:42;;;;;;;0.77;0.77;;;;;;;17.27;55.61;101005.09;4960965;28;97639;-44
2023/07/21 00:10:09;;;;;;;0.90;0.80;;;;;;;17.26;55.70;101011.91;4961315;28;97509;-44
2023/07/21 00:12:35;;;;;;;0.80;0.80;;;;;;;17.27;55.66;101010.66;4961135;28;97084;-45
2023/07/21 00:15:00;;;;;;;1.97;0.93;;;;;;;17.24;55.66;101008.94;4960607;28;97416;-45
2023/07/21 00:17:29;;;;;;;0.87;0.83;;;;;;;17.21;55.81;101010.72;4961525;28;97086;-45
2023/07/21 00:19:54;;;;;;;1.03;0.67;;;;;;;17.19;55.89;101009.75;4961814;28;96672;-45
2023/07/21 00:22:19;;;;;;;0.73;0.73;;;;;;;17.17;55.95;101012.31;4962621;28;97500;-45
2023/07/21 00:24:45;;;;;;;0.83;0.80;;;;;;;17.15;55.86;101020.44;4956867;28;97375;-45
2023/07/21 00:27:11;;;;;;;2.20;0.70;;;;;;;17.14;55.98;101016.16;4955689;28;97364;-45
2023/07/21 00:29:36;;;;;;;0.70;0.70;;;;;;;17.14;56.14;101016.16;4961511;28;96906;-45
2023/07/21 00:32:02;;;;;;;0.80;0.80;;;;;;;17.15;56.24;101017.66;4961620;28;98251;-45
2023/07/21 00:34:27;;;;;;;2.10;0.73;;;;;;;17.17;56.23;101010.28;4961801;28;97107;-44
2023/07/21 00:36:57;;;;;;;1.10;0.93;;;;;;;17.15;56.52;101017.66;4961785;28;97174;-44
2023/07/21 00:39:22;;;;;;;3.47;0.90;;;;;;;17.11;56.42;101004.06;4963253;28;97218;-45
2023/07/21 00:41:48;;;;;;;1.83;0.80;;;;;;;17.09;56.49;101031.66;4960327;28;98735;-44
2023/07/21 00:44:13;;;;;;;0.90;0.60;;;;;;;17.14;56.67;101010.59;4961560;28;109082;-44
2023/07/21 00:46:40;;;;;;;1.53;1.00;;;;;;;17.21;56.66;101021.13;4962494;28;97083;-45
2023/07/21 00:49:05;;;;;;;1.53;0.83;;;;;;;17.25;56.71;101018.78;4962033;28;97324;-44
2023/07/21 00:51:31;;;;;;;1.47;0.87;;;;;;;17.28;56.50;101006.56;4961359;28;96867;-44
2023/07/21 00:53:57;;;;;;;0.97;0.70;;;;;;;17.28;56.61;101009.34;4960369;28;97216;-45
2023/07/21 00:56:22;;;;;;;1.20;0.67;;;;;;;17.29;56.52;101016.44;4962116;28;97184;-45
2023/07/21 00:58:48;;;;;;;0.90;0.70;;;;;;;17.30;56.72;101015.13;4962371;28;96873;-45
2023/07/21 01:01:13;;;;;;;1.20;1.10;;;;;;;17.32;56.90;101012.56;4961437;28;96923;-45
2023/07/21 01:03:39;;;;;;;2.70;1.00;;;;;;;17.35;56.78;101010.78;4963606;28;97192;-45
2023/07/21 01:06:08;;;;;;;1.20;1.10;;;;;;;17.37;56.95;101008.22;4961199;28;97924;-45
2023/07/21 01:08:34;;;;;;;1.77;1.00;;;;;;;17.39;56.80;101011.97;4977042;28;97025;-45
2023/07/21 01:11:01;;;;;;;0.77;0.77;;;;;;;17.39;56.76;101017.53;4962688;28;98027;-44
2023/07/21 01:13:27;;;;;;;1.17;0.80;;;;;;;17.35;56.84;101005.97;4961592;28;97363;-45
2023/07/21 01:15:55;;;;;;;1.23;0.80;;;;;;;17.33;56.80;101008.53;4962581;28;97050;-45
2023/07/21 01:18:21;;;;;;;0.97;0.80;;;;;;;17.34;56.82;101001.69;4963210;28;97136;-44
2023/07/21 01:20:48;;;;;;;1.50;1.13;;;;;;;17.33;56.99;101002.97;4966338;28;97545;-45
2023/07/21 01:23:19;;;;;;;1.10;0.80;;;;;;;17.33;57.27;101008.53;4964391;28;97158;-44
2023/07/21 01:25:46;;;;;;;1.30;0.80;;;;;;;17.29;56.97;101013.66;4966007;28;97240;-44
2023/07/21 01:28:13;;;;;;;0.97;0.90;;;;;;;17.26;57.09;101006.34;4965437;28;96742;-45
2023/07/21 01:30:41;;;;;;;1.50;1.27;;;;;;;17.28;57.24;101003.06;4965537;28;97366;-45
2023/07/21 01:33:08;;;;;;;0.80;0.80;;;;;;;17.30;57.24;101012.34;4964146;28;98021;-44
2023/07/21 01:35:34;;;;;;;5.80;1.20;;;;;;;17.34;57.36;101001.69;4965478;28;97066;-44
2023/07/21 01:38:03;;;;;;;2.10;0.77;;;;;;;17.38;57.48;101009.72;4963961;28;97086;-45
2023/07/21 01:40:29;;;;;;;4.30;1.47;;;;;;;17.40;57.37;101015.50;4967038;28;97600;-45
2023/07/21 01:42:55;;;;;;;1.33;1.20;;;;;;;17.42;57.43;101016.47;4966075;28;97157;-44
2023/07/21 01:45:21;;;;;;;6.93;0.90;;;;;;;17.46;57.53;101019.69;4965729;28;97206;-45
2023/07/21 01:47:47;;;;;;;1.03;0.63;;;;;;;17.45;57.56;101011.88;4964857;28;97360;-46
2023/07/21 01:50:15;;;;;;;1.00;0.90;;;;;;;17.45;57.73;101015.41;4964281;28;97183;-45
2023/07/21 01:52:43;;;;;;;0.90;0.90;;;;;;;17.44;57.83;101016.69;4963803;28;96969;-44
2023/07/21 01:55:22;;;;;;;0.77;0.77;;;;;;;17.43;58.62;101008.88;4964513;28;97113;-45
2023/07/21 01:58:02;;;;;;;1.30;1.20;;;;;;;17.46;58.35;101005.03;4963902;28;97373;-45
2023/07/21 02:00:35;;;;;;;1.77;1.20;;;;;;;17.44;58.05;101004.81;4964567;28;98768;-45
2023/07/21 02:03:04;;;;;;;0.83;0.83;;;;;;;17.42;58.21;100996.25;4963968;28;100278;-44
2023/07/21 02:05:29;;;;;;;1.23;1.13;;;;;;;17.41;58.22;100986.41;4965598;28;97231;-44
2023/07/21 02:07:56;;;;;;;0.93;0.90;;;;;;;17.40;58.44;100984.91;4957005;28;97215;-45
2023/07/21 02:10:21;;;;;;;1.63;1.07;;;;;;;17.39;58.32;100977.81;4963262;28;100551;-45
2023/07/21 02:12:46;;;;;;;1.33;1.00;;;;;;;17.38;58.52;100979.88;4964573;28;97395;-45
2023/07/21 02:15:13;;;;;;;1.17;1.07;;;;;;;17.36;58.65;100965.75;4964991;28;97152;-45
2023/07/21 02:17:39;;;;;;;1.57;1.10;;;;;;;17.39;58.76;100963.91;4964081;28;97208;-45
2023/07/21 02:20:14;;;;;;;1.30;0.83;;;;;;;17.41;58.74;100969.72;4964555;28;97474;-45
2023/07/21 02:22:40;;;;;;;1.30;1.20;;;;;;;17.41;58.77;100953.03;4963837;28;97026;-44
2023/07/21 02:25:09;;;;;;;1.43;1.10;;;;;;;17.40;58.89;100960.63;4964043;28;97045;-44
2023/07/21 02:27:34;;;;;;;1.40;1.30;;;;;;;17.39;58.92;100956.34;4963769;28;97305;-45
2023/07/21 02:30:00;;;;;;;1.10;1.00;;;;;;;17.38;59.08;100957.63;4962939;28;97161;-44
2023/07/21 02:32:28;;;;;;;1.70;0.80;;;;;;;17.40;59.10;100954.31;4963731;28;97226;-44
2023/07/21 02:34:54;;;;;;;1.37;1.27;;;;;;;17.40;59.05;100946.72;4964634;28;97215;-45
2023/07/21 02:37:19;;;;;;;1.10;1.00;;;;;;;17.41;59.11;100937.06;4963499;28;96711;-45
2023/07/21 02:39:44;;;;;;;0.90;0.90;;;;;;;17.40;59.15;100932.81;4960055;28;97975;-44
2023/07/21 02:42:10;;;;;;;2.80;1.50;;;;;;;17.39;59.35;100947.22;4962300;28;101119;-44
2023/07/21 02:44:35;;;;;;;2.70;1.40;;;;;;;17.40;59.24;100940.41;4964112;28;96678;-44
2023/07/21 02:47:00;;;;;;;2.07;1.10;;;;;;;17.39;59.34;100942.41;4963885;28;97429;-44
2023/07/21 02:49:26;;;;;;;1.90;1.00;;;;;;;17.39;59.34;100947.22;4961974;28;98692;-45
2023/07/21 02:51:51;;;;;;;1.77;1.03;;;;;;;17.39;59.51;100950.75;4963061;28;100705;-45
2023/07/21 02:54:17;;;;;;;1.77;1.10;;;;;;;17.40;59.41;100952.28;4964069;28;96917;-45
2023/07/21 02:56:43;;;;;;;1.40;0.93;;;;;;;17.40;59.40;100943.94;4961813;28;97143;-45
2023/07/21 02:59:12;;;;;;;1.00;0.90;;;;;;;17.39;59.51;100945.19;4961561;28;97960;-44
2023/07/21 03:01:38;;;;;;;2.10;1.20;;;;;;;17.38;59.31;100949.28;4963440;28;97271;-45
2023/07/21 03:04:04;;;;;;;1.50;1.10;;;;;;;17.36;59.43;100937.94;4962362;28;97155;-45
2023/07/21 03:06:30;;;;;;;1.50;1.00;;;;;;;17.40;59.57;100935.59;4963971;28;97252;-45
2023/07/21 03:08:56;;;;;;;2.87;1.17;;;;;;;17.38;59.71;100932.59;4962591;28;96785;-45
2023/07/21 03:11:21;;;;;;;1.97;1.00;;;;;;;17.38;59.72;100931.84;4962203;28;97240;-45
2023/07/21 03:13:47;;;;;;;1.03;0.93;;;;;;;17.38;59.77;100932.59;4963738;28;97201;-45
2023/07/21 03:16:12;;;;;;;1.63;1.30;;;;;;;17.38;59.95;100929.81;4962510;28;97027;-45
2023/07/21 03:18:38;;;;;;;1.20;1.10;;;;;;;17.41;59.88;100928.00;4963064;28;97442;-45
2023/07/21 03:21:04;;;;;;;1.00;1.00;;;;;;;17.41;59.92;100919.66;4962019;28;97203;-45
2023/07/21 03:23:30;;;;;;;2.20;1.17;;;;;;;17.43;59.87;100922.66;4980428;28;96830;-45
2023/07/21 03:25:55;;;;;;;1.40;0.90;;;;;;;17.44;59.93;100927.69;4963484;28;96815;-44
2023/07/21 03:28:23;;;;;;;2.33;1.07;;;;;;;17.43;59.73;100914.31;4961407;28;97288;-45
2023/07/21 03:31:01;;;;;;;1.10;1.00;;;;;;;17.40;60.39;100910.56;4962860;28;97070;-45
2023/07/21 03:33:27;;;;;;;1.10;1.10;;;;;;;17.35;59.80;100905.84;4962268;28;97012;-45
2023/07/21 03:36:00;;;;;;;1.13;0.93;;;;;;;17.34;60.45;100909.91;4963289;28;97159;-45
2023/07/21 03:38:30;;;;;;;1.47;1.10;;;;;;;17.33;60.09;100908.41;4962883;28;97447;-45
2023/07/21 03:41:00;;;;;;;1.20;1.03;;;;;;;17.30;60.50;100911.50;4961681;28;97847;-45
2023/07/21 03:43:26;;;;;;;1.20;1.00;;;;;;;17.26;60.19;100911.81;4962185;28;97139;-45
2023/07/21 03:45:59;;;;;;;1.70;1.23;;;;;;;17.22;60.81;100909.34;4963322;28;97109;-45
2023/07/21 03:48:27;;;;;;;1.33;1.20;;;;;;;17.16;60.47;100919.06;4961546;28;98087;-45
2023/07/21 03:51:00;;;;;;;0.90;0.90;;;;;;;17.15;61.12;100926.66;4962828;28;100714;-44
2023/07/21 03:53:29;;;;;;;1.97;1.30;;;;;;;17.18;60.65;100922.06;4962865;28;96756;-45
2023/07/21 03:55:55;;;;;;;1.30;1.20;;;;;;;17.21;60.36;100909.91;4963296;28;97102;-45
2023/07/21 03:58:21;;;;;;;2.70;1.50;;;;;;;17.23;60.46;100912.88;4958783;28;97535;-45
2023/07/21 04:00:46;;;;;;;1.20;1.20;;;;;;;17.24;60.54;100901.22;4962152;28;97238;-48
2023/07/21 04:03:12;;;;;;;1.50;1.40;;;;;;;17.26;60.52;100900.69;4961606;28;96923;-44
2023/07/21 04:05:38;;;;;;;1.20;1.20;;;;;;;17.28;60.64;100897.41;4963162;28;97034;-45
2023/07/21 04:08:03;;;;;;;1.33;1.23;;;;;;;17.29;60.71;100896.09;4960694;28;97734;-45
2023/07/21 04:10:32;;;;;;;1.23;1.13;;;;;;;17.30;60.82;100892.78;4959518;28;96731;-44
2023/07/21 04:12:58;;;;;;;1.63;1.47;;;;;;;17.32;60.79;100887.44;4962060;28;96993;-44
2023/07/21 04:15:25;;;;;;;1.40;1.30;;;;;;;17.35;60.80;100885.63;4962871;28;97442;-44
2023/07/21 04:17:50;;;;;;;1.30;1.20;;;;;;;17.38;60.85;100876.97;4960333;28;97772;-44
2023/07/21 04:20:16;;;;;;;1.40;1.30;;;;;;;17.41;60.63;100884.22;4960833;28;97235;-45
2023/07/21 04:22:41;;;;;;;1.40;1.30;;;;;;;17.42;60.57;100884.97;4960643;28;97365;-45
2023/07/21 04:25:07;;;;;;;2.03;1.07;;;;;;;17.43;60.60;100883.72;4960658;28;103430;-45
2023/07/21 04:27:32;;;;;;;1.40;1.27;;;;;;;17.45;60.71;100878.38;4960419;28;97085;-45
2023/07/21 04:29:59;;;;;;;1.40;1.30;;;;;;;17.45;60.75;100881.16;4961554;28;97152;-45
2023/07/21 04:32:24;;;;;;;0.87;0.87;;;;;;;17.46;60.67;100883.38;4961642;28;96960;-44
2023/07/21 04:34:50;;;;;;;1.50;1.40;;;;;;;17.46;60.90;100872.25;4961609;28;96871;-45
2023/07/21 04:37:15;;;;;;;1.20;1.10;;;;;;;17.46;60.88;100875.03;4961829;28;96874;-45
2023/07/21 04:39:40;;;;;;;2.30;1.30;;;;;;;17.47;60.71;100879.34;4961567;28;97701;-45
2023/07/21 04:42:06;;;;;;;2.00;1.23;;;;;;;17.47;60.85;100870.97;4963263;28;96910;-45
2023/07/21 04:44:32;;;;;;;1.67;1.30;;;;;;;17.47;60.74;100870.97;4961266;28;97310;-45
2023/07/21 04:46:57;;;;;;;1.60;1.07;;;;;;;17.50;60.84;100878.28;4962051;28;99683;-44
2023/07/21 04:49:22;;;;;;;1.43;1.33;;;;;;;17.50;60.75;100874.72;4963727;28;97041;-45
2023/07/21 04:51:47;;;;;;;1.20;1.10;;;;;;;17.49;60.77;100873.97;4961889;28;97448;-45
2023/07/21 04:54:13;;;;;;;1.20;1.20;;;;;;;17.50;60.69;100877.50;4962560;28;97280;-45
2023/07/21 04:56:39;;;;;;;1.10;1.10;;;;;;;17.51;60.89;100874.22;4960555;28;97110;-44
2023/07/21 04:59:04;;;;;;;2.10;1.50;;;;;;;17.53;61.01;100870.91;4960875;28;97021;-45
2023/07/21 05:01:31;;;;;;;1.20;1.10;;;;;;;17.55;60.76;100868.31;4963683;28;97715;-45
2023/07/21 05:03:57;;;;;;;5.13;1.37;;;;;;;17.55;60.84;100868.31;4961937;28;97107;-45
2023/07/21 05:06:23;;;;;;;1.13;1.03;;;;;;;17.56;60.86;100867.78;4961327;28;97327;-45
2023/07/21 05:08:49;;;;;;;2.43;1.43;;;;;;;17.59;61.04;100869.50;4960113;28;97395;-44
2023/07/21 05:11:14;;;;;;;1.53;1.20;;;;;;;17.64;61.09;100868.66;4962357;28;97085;-45
2023/07/21 05:13:39;;;;;;;1.30;1.20;;;;;;;17.70;60.97;100872.06;4961207;28;97071;-45
2023/07/21 05:16:05;;;;;;;1.33;1.17;;;;;;;17.74;60.87;100877.28;4961961;28;96985;-45
2023/07/21 05:18:30;;;;;;;3.43;1.80;;;;;;;17.75;60.97;100878.81;4960223;28;96762;-45
2023/07/21 05:20:56;;;;;;;1.60;1.27;;;;;;;17.78;60.89;100886.06;4961165;28;97013;-45
2023/07/21 05:23:21;;;;;;;1.73;1.37;;;;;;;17.80;60.94;100895.38;4961562;28;97034;-45
2023/07/21 05:25:47;;;;;;;0.93;0.93;;;;;;;17.82;60.94;100892.06;4961922;28;98524;-45
2023/07/21 05:28:13;;;;;;;1.70;1.60;;;;;;;17.83;60.85;100897.09;4960632;28;99860;-45
2023/07/21 05:30:42;;;;;;;1.20;1.10;;;;;;;17.85;60.94;100890.97;4961643;28;97055;-45
2023/07/21 05:33:07;;;;;;;1.60;1.50;;;;;;;17.84;60.90;100893.00;4962434;28;96984;-44
2023/07/21 05:35:32;;;;;;;2.57;1.20;;;;;;;17.85;60.87;100890.97;4961570;28;97292;-45
2023/07/21 05:37:58;;;;;;;1.50;1.40;;;;;;;17.86;61.01;100892.50;4959541;28;102871;-45
2023/07/21 05:40:23;;;;;;;1.90;1.80;;;;;;;17.88;61.05;100899.03;4963187;28;97129;-44
2023/07/21 05:42:49;;;;;;;1.70;1.60;;;;;;;17.91;61.21;100895.16;4960877;28;97189;-45
2023/07/21 05:45:15;;;;;;;1.70;1.60;;;;;;;17.93;61.03;100906.50;4961553;28;97220;-45
2023/07/21 05:47:41;;;;;;;2.07;1.97;;;;;;;17.94;61.02;100908.00;4961126;28;97776;-44
2023/07/21 05:50:07;;;;;;;1.43;1.33;;;;;;;17.98;61.09;100905.66;4961307;28;97022;-45
2023/07/21 05:52:33;;;;;;;1.33;1.27;;;;;;;17.99;61.00;100898.03;4962252;28;97445;-45
2023/07/21 05:54:58;;;;;;;2.00;1.47;;;;;;;18.03;61.10;100898.47;4962628;28;97204;-45
2023/07/21 05:57:23;;;;;;;2.70;1.73;;;;;;;18.10;61.07;100903.38;4959888;28;97123;-44
2023/07/21 05:59:49;;;;;;;1.60;1.20;;;;;;;18.12;60.79;100905.63;4961197;28;97953;-45
2023/07/21 06:02:14;;;;;;;2.23;1.53;;;;;;;18.16;61.05;100908.81;4961380;28;96816;-45
2023/07/21 06:04:39;;;;;;;3.77;1.53;;;;;;;18.19;61.02;100910.53;4962843;28;101071;-44
2023/07/21 06:07:05;;;;;;;3.23;1.67;;;;;;;18.22;60.87;100906.66;4965382;28;97058;-45
2023/07/21 06:09:30;;;;;;;1.70;1.60;;;;;;;18.24;61.03;100904.09;4963950;28;97492;-45
2023/07/21 06:11:55;;;;;;;1.67;1.57;;;;;;;18.24;61.21;100902.06;4963795;28;96816;-45
2023/07/21 06:14:21;;;;;;;2.27;1.47;;;;;;;18.29;61.11;100903.22;4963550;28;96980;-44
2023/07/21 06:16:46;;;;;;;2.33;1.20;;;;;;;18.32;61.10;100891.00;4963109;28;97091;-45
2023/07/21 06:19:12;;;;;;;2.73;1.63;;;;;;;18.36;61.08;100894.22;4964636;28;100599;-45
2023/07/21 06:21:37;;;;;;;2.10;1.40;;;;;;;18.45;60.76;100896.56;4963838;28;97235;-45
2023/07/21 06:24:02;;;;;;;1.60;1.50;;;;;;;18.53;60.80;100894.59;4962830;28;96856;-45
2023/07/21 06:26:28;;;;;;;1.27;1.20;;;;;;;18.59;60.82;100889.63;4963821;28;97768;-45
2023/07/21 06:28:53;;;;;;;1.70;1.60;;;;;;;18.63;60.77;100892.84;4963869;28;97257;-45
2023/07/21 06:31:19;;;;;;;2.00;1.47;;;;;;;18.69;60.89;100890.69;4966492;28;96858;-45
2023/07/21 06:33:44;;;;;;;1.77;1.17;;;;;;;18.72;60.60;100888.84;4963548;28;97372;-45
2023/07/21 06:36:09;;;;;;;1.63;1.50;;;;;;;18.76;60.55;100878.84;4961863;28;97180;-45
2023/07/21 06:38:35;;;;;;;1.63;1.53;;;;;;;18.86;60.49;100871.50;4958903;28;103422;-45
2023/07/21 06:41:01;;;;;;;1.50;1.40;;;;;;;18.93;60.43;100878.44;4961058;28;97238;-45
2023/07/21 06:43:26;;;;;;;2.03;1.30;;;;;;;18.99;60.20;100885.38;4959779;28;97390;-44
2023/07/21 06:45:51;;;;;;;1.83;1.30;;;;;;;19.01;60.30;100880.00;4960007;28;104929;-45
2023/07/21 06:48:17;;;;;;;1.50;1.40;;;;;;;19.04;60.14;100873.34;4959659;28;96735;-45
2023/07/21 06:50:42;;;;;;;1.90;1.77;;;;;;;19.10;60.08;100871.16;4962295;28;97031;-45
2023/07/21 06:53:08;;;;;;;1.33;1.27;;;;;;;19.15;60.15;100875.84;4961720;28;98005;-45
2023/07/21 06:55:34;;;;;;;1.63;1.20;;;;;;;19.17;60.26;100881.63;4962941;28;97125;-45
2023/07/21 06:58:00;;;;;;;1.40;0.93;;;;;;;19.22;60.06;100883.50;4962806;28;97199;-45
2023/07/21 07:00:26;;;;;;;1.40;1.30;;;;;;;19.27;59.93;100876.28;4961671;28;97000;-45
2023/07/21 07:02:56;;;;;;;1.40;1.30;;;;;;;19.34;59.94;100892.31;4962145;28;97188;-45
2023/07/21 07:05:21;;;;;;;1.30;1.20;;;;;;;19.40;59.95;100879.75;4961104;28;97197;-45
2023/07/21 07:07:50;;;;;;;1.40;1.30;;;;;;;19.45;59.95;100875.31;4962556;28;97138;-45
2023/07/21 07:10:15;;;;;;;1.60;1.50;;;;;;;19.46;59.78;100874.03;4963783;28;97176;-45
2023/07/21 07:12:41;;;;;;;1.20;1.20;;;;;;;19.41;59.75;100864.50;4963178;28;97129;-45
2023/07/21 07:15:09;;;;;;;2.37;1.47;;;;;;;19.41;59.57;100872.13;4963065;28;96707;-45
2023/07/21 07:17:34;;;;;;;1.53;1.40;;;;;;;19.44;59.88;100868.22;4963968;28;97272;-45
2023/07/21 07:19:59;;;;;;;1.40;1.30;;;;;;;19.46;59.46;100864.91;4960281;28;97066;-45
2023/07/21 07:22:25;;;;;;;1.30;1.20;;;;;;;19.46;59.64;100871.25;4959570;28;109761;-45
2023/07/21 07:24:51;;;;;;;1.60;1.50;;;;;;;19.52;60.04;100871.81;4961247;28;97323;-45
2023/07/21 07:27:16;;;;;;;1.93;1.70;;;;;;;19.62;59.86;100860.88;4962586;28;96962;-45
2023/07/21 07:29:42;;;;;;;2.50;1.47;;;;;;;19.73;59.64;100861.31;4963390;28;97415;-45
2023/07/21 07:32:08;;;;;;;1.63;1.43;;;;;;;19.79;59.56;100859.13;4946096;28;98651;-45
2023/07/21 07:34:33;;;;;;;1.47;1.30;;;;;;;19.91;59.58;100857.50;4957853;28;97165;-45
2023/07/21 07:36:58;;;;;;;1.67;1.57;;;;;;;20.04;59.48;100862.19;4961154;28;97043;-45
2023/07/21 07:39:24;;;;;;;1.50;1.10;;;;;;;20.13;59.49;100848.47;4961318;28;97280;-45
2023/07/21 07:41:51;;;;;;;2.23;1.50;;;;;;;20.26;59.27;100855.97;4962162;28;97501;-45
2023/07/21 07:44:17;;;;;;;1.70;1.60;;;;;;;20.27;59.11;100854.66;4960835;28;97108;-45
2023/07/21 07:46:43;;;;;;;1.03;1.03;;;;;;;20.28;58.85;100850.56;4961205;28;97446;-45
2023/07/21 07:49:09;;;;;;;1.33;1.10;;;;;;;20.32;59.06;100853.00;4961611;28;97191;-45
2023/07/21 07:51:37;;;;;;;1.20;1.10;;;;;;;20.34;59.08;100848.34;4959618;28;97150;-45
2023/07/21 07:54:05;;;;;;;1.50;1.23;;;;;;;20.37;59.12;100855.63;4961025;28;100403;-45
2023/07/21 07:56:30;;;;;;;1.33;1.23;;;;;;;20.39;58.85;100853.00;4960544;28;97407;-45
2023/07/21 07:58:57;;;;;;;1.97;1.30;;;;;;;20.45;58.71;100855.63;4959717;28;96880;-45
2023/07/21 08:01:22;;;;;;;2.00;1.27;;;;;;;20.53;58.62;100854.34;4953077;28;97574;-45
2023/07/21 08:03:48;;;;;;;2.30;1.53;;;;;;;20.61;58.54;100851.56;4956008;28;97969;-44
2023/07/21 08:06:13;;;;;;;1.47;1.37;;;;;;;20.73;58.40;100847.06;4956024;28;97496;-45
2023/07/21 08:08:40;;;;;;;2.80;1.47;;;;;;;20.83;58.31;100851.59;4954758;28;97213;-48
2023/07/21 08:11:06;;;;;;;1.80;1.27;;;;;;;20.90;58.11;100848.00;4954599;28;98887;-45
2023/07/21 08:13:32;;;;;;;4.37;1.43;;;;;;;21.00;57.93;100836.25;4954258;28;98383;-45
2023/07/21 08:15:57;;;;;;;1.50;1.40;;;;;;;21.04;57.55;100839.47;4954139;28;97107;-44
2023/07/21 08:18:22;;;;;;;1.50;1.40;;;;;;;21.07;57.36;100843.94;4954840;28;97788;-45
2023/07/21 08:20:50;;;;;;;2.17;1.20;;;;;;;21.15;57.16;100841.88;4954277;28;98490;-45
2023/07/21 08:23:15;;;;;;;1.40;1.30;;;;;;;21.20;56.96;100833.28;4955092;28;97854;-45
2023/07/21 08:25:41;;;;;;;1.33;1.23;;;;;;;21.21;56.99;100829.19;4955908;28;97182;-45
2023/07/21 08:28:07;;;;;;;1.30;1.20;;;;;;;21.26;56.57;100835.88;4955564;28;97361;-45
2023/07/21 08:30:33;;;;;;;1.40;1.30;;;;;;;21.21;56.34;100829.19;4955339;28;97500;-45
2023/07/21 08:32:59;;;;;;;1.57;1.00;;;;;;;21.22;56.12;100833.47;4954250;28;98881;-46
2023/07/21 08:35:25;;;;;;;1.83;1.53;;;;;;;21.28;56.02;100839.63;4952899;28;98590;-45
2023/07/21 08:37:51;;;;;;;1.60;1.47;;;;;;;21.36;55.85;100834.00;4956112;28;97569;-45
2023/07/21 08:40:16;;;;;;;1.40;1.10;;;;;;;21.45;55.90;100836.22;4959876;28;97323;-45
2023/07/21 08:42:42;;;;;;;1.50;1.40;;;;;;;21.56;56.19;100858.22;4957701;28;97146;-45
2023/07/21 08:45:08;;;;;;;3.50;1.27;;;;;;;21.67;55.69;100827.00;4957982;28;97639;-45
2023/07/21 08:47:34;;;;;;;3.07;1.57;;;;;;;21.74;55.40;100825.47;4959194;28;97676;-45
2023/07/21 08:50:01;;;;;;;1.63;1.00;;;;;;;21.84;55.08;100834.81;4955909;28;97266;-45
2023/07/21 08:52:26;;;;;;;1.47;1.37;;;;;;;21.97;55.16;100831.78;4958102;28;98182;-45
2023/07/21 08:54:53;;;;;;;1.30;1.20;;;;;;;21.98;54.84;100824.84;4959425;28;96917;-45
2023/07/21 08:57:19;;;;;;;1.63;1.00;;;;;;;21.97;54.70;100823.38;4960777;28;96862;-45
2023/07/21 08:59:44;;;;;;;1.33;1.03;;;;;;;21.99;54.32;100824.28;4958892;28;98602;-45
2023/07/21 09:02:10;;;;;;;1.93;1.00;;;;;;;22.07;53.93;100819.38;4962115;28;97711;-45
2023/07/21 09:04:35;;;;;;;3.30;1.67;;;;;;;22.08;53.59;100829.25;4959050;28;97260;-45
2023/07/21 09:07:03;;;;;;;1.33;1.23;;;;;;;22.07;53.32;100824.97;4958889;28;97160;-45
2023/07/21 09:09:30;;;;;;;1.10;1.10;;;;;;;22.16;52.97;100829.22;4959247;28;97210;-45
2023/07/21 09:12:02;;;;;;;2.10;1.40;;;;;;;22.41;51.17;100827.19;4956274;28;97657;-45
2023/07/21 09:14:39;;;;;;;1.37;1.27;;;;;;;22.47;51.46;100826.97;4959396;28;97429;-45
2023/07/21 09:17:05;;;;;;;1.20;1.07;;;;;;;22.59;52.01;100820.38;4957098;28;97650;-45
2023/07/21 09:19:39;;;;;;;1.33;1.23;;;;;;;22.71;51.87;100826.28;4959005;28;97341;-45
2023/07/21 09:22:05;;;;;;;1.20;1.10;;;;;;;22.74;51.96;100820.25;4960882;28;97870;-45
2023/07/21 09:24:30;;;;;;;1.43;1.33;;;;;;;22.72;52.15;100813.72;4959130;28;97401;-45
2023/07/21 09:27:16;;;;;;;1.57;1.30;;;;;;;22.71;51.63;100818.59;4959200;28;97077;-45
2023/07/21 09:29:43;;;;;;;1.20;1.00;;;;;;;22.67;51.95;100815.44;4959296;28;97893;-45
2023/07/21 09:32:12;;;;;;;0.87;0.87;;;;;;;22.70;51.60;100813.53;4958047;28;97383;-45
2023/07/21 09:35:01;;;;;;;1.70;1.00;;;;;;;22.65;50.46;100817.34;4959933;28;97098;-45
2023/07/21 09:37:28;;;;;;;1.40;1.30;;;;;;;22.62;51.56;100815.69;4960351;28;97840;-45
2023/07/21 09:39:59;;;;;;;1.40;1.10;;;;;;;22.71;51.57;100804.56;4960130;28;98213;-45
2023/07/21 09:42:29;;;;;;;1.10;0.80;;;;;;;22.86;51.37;100815.66;4962854;28;97729;-45
2023/07/21 09:44:56;;;;;;;1.33;1.00;;;;;;;22.93;51.50;100814.84;4961966;28;96963;-45
2023/07/21 09:47:23;;;;;;;1.57;1.47;;;;;;;23.09;51.10;100804.97;4960271;28;97640;-45
2023/07/21 09:49:50;;;;;;;1.50;1.40;;;;;;;23.23;50.68;100808.19;4960741;28;97088;-45
2023/07/21 09:52:17;;;;;;;0.83;0.83;;;;;;;23.40;50.40;100805.41;4962210;28;96812;-45
2023/07/21 09:55:00;;;;;;;1.10;1.00;;;;;;;23.66;48.58;100799.09;4962900;28;97324;-45
2023/07/21 09:57:27;;;;;;;0.80;0.70;;;;;;;23.79;48.92;100800.81;4963697;28;97331;-45
2023/07/21 09:59:59;;;;;;;1.73;1.10;;;;;;;23.92;48.09;100797.63;4962944;28;96852;-45
2023/07/21 10:02:25;;;;;;;1.00;0.90;;;;;;;23.95;48.47;100798.53;4962647;28;97210;-45
2023/07/21 10:04:50;;;;;;;2.03;0.80;;;;;;;24.02;48.23;100794.91;4962701;28;97316;-45
2023/07/21 10:07:16;;;;;;;3.30;0.90;;;;;;;24.02;47.79;100789.28;4960855;28;97411;-45
2023/07/21 10:09:47;;;;;;;1.20;1.10;;;;;;;24.09;47.56;100786.38;4962863;28;97213;-45
2023/07/21 10:12:14;;;;;;;0.80;0.60;;;;;;;24.23;47.54;100781.13;4962828;28;98496;-45
2023/07/21 10:14:40;;;;;;;0.90;0.90;;;;;;;24.27;47.77;100778.59;4963255;28;96976;-45
2023/07/21 10:17:07;;;;;;;1.37;0.70;;;;;;;24.30;47.80;100774.63;4962892;28;97231;-45
2023/07/21 10:19:40;;;;;;;1.30;0.90;;;;;;;24.24;46.33;100772.09;4961256;28;98012;-45
2023/07/21 10:22:09;;;;;;;0.80;0.77;;;;;;;24.16;47.22;100777.09;4949217;28;98073;-45
2023/07/21 10:24:44;;;;;;;0.70;0.60;;;;;;;24.23;46.18;100779.06;4962746;28;96967;-45
2023/07/21 10:27:19;;;;;;;1.10;0.97;;;;;;;24.30;45.94;100772.56;4956916;28;96983;-45
2023/07/21 10:29:44;;;;;;;0.93;0.93;;;;;;;24.42;47.21;100779.13;4963243;28;97226;-45
2023/07/21 10:32:10;;;;;;;1.17;1.07;;;;;;;24.49;47.11;100774.69;4962595;28;96733;-45
2023/07/21 10:34:41;;;;;;;1.00;0.90;;;;;;;24.59;46.54;100776.22;4963466;28;97342;-45
2023/07/21 10:37:07;;;;;;;0.80;0.80;;;;;;;24.74;46.51;100771.66;4962274;28;97079;-51
2023/07/21 10:39:35;;;;;;;0.80;0.80;;;;;;;24.73;46.18;100772.97;4962474;28;97324;-45
2023/07/21 10:42:03;;;;;;;0.80;0.70;;;;;;;24.66;46.53;100774.59;4959831;28;97112;-45
2023/07/21 10:44:45;;;;;;;1.00;0.90;;;;;;;24.59;45.04;100775.50;4961859;28;97261;-45
2023/07/21 10:47:13;;;;;;;0.80;0.80;;;;;;;24.50;46.09;100776.19;4961032;28;97054;-45
2023/07/21 10:49:38;;;;;;;1.47;0.80;;;;;;;24.49;46.05;100772.63;4962065;28;97312;-45
2023/07/21 10:52:04;;;;;;;4.10;1.13;;;;;;;24.51;46.08;100774.84;4961108;28;96751;-46
2023/07/21 10:54:30;;;;;;;1.00;0.90;;;;;;;24.47;45.46;100768.91;4963100;28;97044;-45
2023/07/21 10:56:58;;;;;;;1.20;0.70;;;;;;;24.46;45.43;100776.59;4961890;28;97427;-45
2023/07/21 10:59:24;;;;;;;0.80;0.80;;;;;;;24.48;45.68;100773.97;4963325;28;97374;-45
2023/07/21 11:01:53;;;;;;;1.20;1.00;;;;;;;24.51;45.44;100774.84;4962038;28;98404;-45
2023/07/21 11:04:20;;;;;;;1.53;1.00;;;;;;;24.49;45.23;100769.06;4961480;28;97168;-45
2023/07/21 11:06:58;;;;;;;0.73;0.73;;;;;;;24.51;44.31;100788.91;4961691;28;97453;-45
2023/07/21 11:09:26;;;;;;;1.10;0.77;;;;;;;24.59;45.50;100778.31;4961963;28;97045;-45
2023/07/21 11:11:56;;;;;;;0.70;0.70;;;;;;;24.69;45.56;100776.25;4962031;28;97667;-45
2023/07/21 11:14:26;;;;;;;0.90;0.90;;;;;;;24.68;45.23;100790.91;4963596;28;96768;-45
2023/07/21 11:17:03;;;;;;;0.87;0.87;;;;;;;24.67;44.25;100767.66;4962110;28;96711;-45
2023/07/21 11:19:31;;;;;;;1.00;0.90;;;;;;;24.67;45.47;100770.47;4962561;28;97085;-45
2023/07/21 11:21:56;;;;;;;0.90;0.80;;;;;;;24.65;45.35;100772.38;4962160;28;96798;-45